createdAt,value
2019-05-21T00:00:25.778Z,99.90
2019-05-21T00:02:56.249Z,99.90
2019-05-21T00:05:26.717Z,99.90
2019-05-21T00:07:57.122Z,99.90
2019-05-21T00:10:27.552Z,99.90
2019-05-21T00:12:57.961Z,99.90
2019-05-21T00:15:28.479Z,99.90
2019-05-21T00:17:58.884Z,99.90
2019-05-21T00:20:29.333Z,99.90
2019-05-21T00:22:59.818Z,99.90
2019-05-21T00:25:30.252Z,99.90
2019-05-21T00:28:23.366Z,99.90
2019-05-21T00:31:47.813Z,99.90
2019-05-21T00:35:12.029Z,99.90
2019-05-21T00:38:37.054Z,99.90
2019-05-21T00:42:04.542Z,99.90
2019-05-21T00:44:39.621Z,99.90
2019-05-21T00:47:11.917Z,99.90
2019-05-21T00:49:42.592Z,99.90
2019-05-21T00:52:13.067Z,99.90
2019-05-21T00:54:43.581Z,99.90
2019-05-21T00:57:13.996Z,99.90
2019-05-21T00:59:44.492Z,99.90
2019-05-21T01:02:14.885Z,99.90
2019-05-21T01:04:59.573Z,99.90
2019-05-21T01:07:17.485Z,99.90
2019-05-21T01:09:47.916Z,99.90
2019-05-21T01:12:18.313Z,99.90
2019-05-21T01:14:48.760Z,99.90
2019-05-21T01:17:19.223Z,99.90
2019-05-21T01:19:49.656Z,99.90
2019-05-21T01:22:20.088Z,99.90
2019-05-21T01:24:50.532Z,99.90
2019-05-21T01:27:20.996Z,99.90
2019-05-21T01:29:51.604Z,99.90
2019-05-21T01:32:22.003Z,99.90
2019-05-21T01:34:52.510Z,99.90
2019-05-21T01:37:23.190Z,99.90
2019-05-21T01:39:53.642Z,99.90
2019-05-21T01:42:25.114Z,99.90
2019-05-21T01:44:55.562Z,99.90
2019-05-21T01:47:26.090Z,99.90
2019-05-21T01:49:56.610Z,99.90
2019-05-21T01:52:27.019Z,99.90
2019-05-21T01:54:57.454Z,99.90
2019-05-21T01:57:27.861Z,99.90
2019-05-21T01:59:58.299Z,99.90
2019-05-21T02:02:28.690Z,99.90
2019-05-21T02:04:59.127Z,99.90
2019-05-21T02:07:29.531Z,99.90
2019-05-21T02:09:59.970Z,99.90
2019-05-21T02:12:30.372Z,99.90
2019-05-21T02:15:00.820Z,99.90
2019-05-21T02:17:31.220Z,99.90
2019-05-21T02:20:01.660Z,99.90
2019-05-21T02:22:32.095Z,99.90
2019-05-21T02:25:02.558Z,99.90
2019-05-21T02:27:32.957Z,99.90
2019-05-21T02:30:04.098Z,99.90
2019-05-21T02:32:34.911Z,99.90
2019-05-21T02:35:06.305Z,99.90
2019-05-21T02:37:41.711Z,99.90
2019-05-21T02:40:13.584Z,99.90
2019-05-21T02:42:44.305Z,99.90
2019-05-21T02:45:15.552Z,99.90
2019-05-21T02:47:45.949Z,99.90
2019-05-21T02:50:17.636Z,99.90
2019-05-21T02:52:48.046Z,99.90
2019-05-21T02:55:20.091Z,99.90
2019-05-21T02:57:50.488Z,99.90
2019-05-21T03:00:28.699Z,99.90
2019-05-21T03:03:00.820Z,99.90
2019-05-21T03:05:31.329Z,99.90
2019-05-21T03:08:01.768Z,99.90
2019-05-21T03:10:32.242Z,99.90
2019-05-21T03:13:02.645Z,99.90
2019-05-21T03:15:33.152Z,99.90
2019-05-21T03:18:03.537Z,99.90
2019-05-21T03:20:33.972Z,99.90
2019-05-21T03:23:04.379Z,99.90
2019-05-21T03:25:34.824Z,99.90
2019-05-21T03:28:05.373Z,99.90
2019-05-21T03:30:35.832Z,99.90
2019-05-21T03:33:06.367Z,99.90
2019-05-21T03:35:36.864Z,99.90
2019-05-21T03:38:07.288Z,99.90
2019-05-21T03:40:37.782Z,99.90
2019-05-21T03:43:08.189Z,99.90
2019-05-21T03:45:38.707Z,99.90
2019-05-21T03:48:09.142Z,99.90
2019-05-21T03:50:40.462Z,99.90
2019-05-21T03:53:10.962Z,99.90
2019-05-21T03:55:41.409Z,99.90
2019-05-21T03:58:11.914Z,99.90
2019-05-21T04:00:42.312Z,99.90
2019-05-21T04:03:12.754Z,99.90
2019-05-21T04:05:43.151Z,99.90
2019-05-21T04:08:13.671Z,99.90
2019-05-21T04:10:44.151Z,99.90
2019-05-21T04:13:16.411Z,99.90
2019-05-21T04:15:57.455Z,99.90
2019-05-21T04:18:29.686Z,99.90
2019-05-21T04:21:00.145Z,99.90
2019-05-21T04:23:30.644Z,99.90
2019-05-21T04:26:02.104Z,99.90
2019-05-21T04:28:32.621Z,99.90
2019-05-21T04:31:03.022Z,99.90
2019-05-21T04:33:33.472Z,99.90
2019-05-21T04:36:03.953Z,99.90
2019-05-21T04:38:34.392Z,99.90
2019-05-21T04:41:04.782Z,99.90
2019-05-21T04:43:35.230Z,99.90
2019-05-21T04:46:05.701Z,99.90
2019-05-21T04:48:36.150Z,99.90
2019-05-21T04:51:06.549Z,99.90
2019-05-21T04:53:36.997Z,99.90
2019-05-21T04:56:07.405Z,99.90
2019-05-21T04:58:38.234Z,99.90
2019-05-21T05:01:08.754Z,99.90
2019-05-21T05:03:39.193Z,99.90
2019-05-21T05:06:09.664Z,99.90
2019-05-21T05:08:40.186Z,99.90
2019-05-21T05:11:10.591Z,99.90
2019-05-21T05:13:41.040Z,99.90
2019-05-21T05:16:11.717Z,99.90
2019-05-21T05:18:42.222Z,99.90
2019-05-21T05:21:12.627Z,99.90
2019-05-21T05:23:43.089Z,99.90
2019-05-21T05:26:13.744Z,99.90
2019-05-21T05:28:44.256Z,99.90
2019-05-21T05:31:15.396Z,99.90
2019-05-21T05:33:47.086Z,99.90
2019-05-21T05:36:17.491Z,99.90
2019-05-21T05:38:47.932Z,99.90
2019-05-21T05:41:18.340Z,99.90
2019-05-21T05:43:48.855Z,99.90
2019-05-21T05:46:19.331Z,99.90
2019-05-21T05:48:51.414Z,99.90
2019-05-21T05:51:22.054Z,99.90
2019-05-21T05:53:58.482Z,99.90
2019-05-21T05:56:29.586Z,99.90
2019-05-21T05:59:00.141Z,99.90
2019-05-21T06:01:32.180Z,99.90
2019-05-21T06:04:02.613Z,99.90
2019-05-21T06:06:33.012Z,99.90
2019-05-21T06:09:05.486Z,99.90
2019-05-21T06:11:35.968Z,99.90
2019-05-21T06:14:06.482Z,99.90
2019-05-21T06:16:36.895Z,99.90
2019-05-21T06:19:07.362Z,99.90
2019-05-21T06:21:37.756Z,99.90
2019-05-21T06:24:08.198Z,99.90
2019-05-21T06:26:38.636Z,99.90
2019-05-21T06:29:09.080Z,99.90
2019-05-21T06:31:39.562Z,99.90
2019-05-21T06:34:10.003Z,99.90
2019-05-21T06:36:40.398Z,99.90
2019-05-21T06:39:10.981Z,99.90
2019-05-21T06:41:41.439Z,99.90
2019-05-21T06:44:11.877Z,99.90
2019-05-21T06:46:42.268Z,99.90
2019-05-21T06:49:12.716Z,99.90
2019-05-21T06:51:43.113Z,99.90
2019-05-21T06:54:13.560Z,99.90
2019-05-21T06:56:44.024Z,99.90
2019-05-21T06:59:14.468Z,99.90
2019-05-21T07:01:44.865Z,99.90
2019-05-21T07:04:15.312Z,99.90
2019-05-21T07:06:45.783Z,99.90
2019-05-21T07:09:16.492Z,99.90
2019-05-21T07:11:46.891Z,99.90
2019-05-21T07:14:17.331Z,99.90
2019-05-21T07:16:47.727Z,99.90
2019-05-21T07:19:18.166Z,99.90
2019-05-21T07:21:48.615Z,99.90
2019-05-21T07:24:19.053Z,99.90
2019-05-21T07:26:49.577Z,99.90
2019-05-21T07:29:19.978Z,99.90
2019-05-21T07:31:50.426Z,99.90
2019-05-21T07:34:20.834Z,99.90
2019-05-21T07:36:51.289Z,99.90
2019-05-21T07:39:21.697Z,99.90
2019-05-21T07:41:52.147Z,99.90
2019-05-21T07:44:22.542Z,99.90
2019-05-21T07:46:53.073Z,99.90
2019-05-21T07:49:23.820Z,99.90
2019-05-21T07:51:54.260Z,99.90
2019-05-21T07:54:27.936Z,99.90
2019-05-21T07:56:57.961Z,99.90
2019-05-21T07:59:28.361Z,99.90
2019-05-21T08:01:58.818Z,99.90
2019-05-21T08:04:29.225Z,99.90
2019-05-21T08:06:59.698Z,99.90
2019-05-21T08:09:30.181Z,99.90
2019-05-21T08:12:00.622Z,99.90
2019-05-21T08:14:31.027Z,99.90
2019-05-21T08:17:01.486Z,99.90
2019-05-21T08:19:32.042Z,99.90
2019-05-21T08:22:02.580Z,99.60
2019-05-21T08:24:33.565Z,99.60
2019-05-21T08:27:04.084Z,99.00
2019-05-21T08:29:34.743Z,98.60
2019-05-21T08:32:05.289Z,98.90
2019-05-21T08:34:35.690Z,98.10
2019-05-21T08:37:06.418Z,98.30
2019-05-21T08:39:36.932Z,98.20
2019-05-21T08:42:07.513Z,97.80
2019-05-21T08:44:37.904Z,97.90
2019-05-21T08:47:08.367Z,98.10
2019-05-21T08:49:38.763Z,97.60
2019-05-21T08:52:09.271Z,97.70
2019-05-21T08:54:50.181Z,97.40
2019-05-21T08:57:21.164Z,97.00
2019-05-21T08:59:51.566Z,96.30
2019-05-21T09:02:23.840Z,94.70
2019-05-21T09:04:54.246Z,93.00
2019-05-21T09:07:24.756Z,91.30
2019-05-21T09:09:55.233Z,90.50
2019-05-21T09:12:25.893Z,88.00
2019-05-21T09:14:56.287Z,87.80
2019-05-21T09:17:26.738Z,86.60
2019-05-21T09:19:57.142Z,83.80
2019-05-21T09:22:27.595Z,83.70
2019-05-21T09:24:58.005Z,84.60
2019-05-21T09:27:28.447Z,84.80
2019-05-21T09:29:58.851Z,83.90
2019-05-21T09:32:29.375Z,82.80
2019-05-21T09:34:59.777Z,82.80
2019-05-21T09:37:30.282Z,80.20
2019-05-21T09:40:00.865Z,78.70
2019-05-21T09:42:31.327Z,78.00
2019-05-21T09:45:01.738Z,77.20
2019-05-21T09:47:32.245Z,78.60
2019-05-21T09:50:03.495Z,77.30
2019-05-21T09:52:34.406Z,78.00
2019-05-21T09:55:06.148Z,81.10
2019-05-21T09:57:53.623Z,80.50
2019-05-21T10:00:35.062Z,81.50
2019-05-21T10:03:07.215Z,82.30
2019-05-21T10:05:37.616Z,83.10
2019-05-21T10:08:08.068Z,80.70
2019-05-21T10:10:38.468Z,79.70
2019-05-21T10:13:08.979Z,78.50
2019-05-21T10:15:39.437Z,79.20
2019-05-21T10:18:09.944Z,76.40
2019-05-21T10:20:40.459Z,77.80
2019-05-21T10:23:10.924Z,79.10
2019-05-21T10:25:41.448Z,84.30
2019-05-21T10:28:11.878Z,79.50
2019-05-21T10:30:42.569Z,77.10
2019-05-21T10:33:13.046Z,74.30
2019-05-21T10:35:43.575Z,74.60
2019-05-21T10:38:14.048Z,74.60
2019-05-21T10:40:45.847Z,75.00
2019-05-21T10:43:16.506Z,71.00
2019-05-21T10:45:47.026Z,71.00
2019-05-21T10:48:17.466Z,73.00
2019-05-21T10:50:47.871Z,66.80
2019-05-21T10:53:19.655Z,69.10
2019-05-21T10:55:50.574Z,68.30
2019-05-21T10:58:21.119Z,71.10
2019-05-21T11:00:53.318Z,73.30
2019-05-21T11:03:25.561Z,73.30
2019-05-21T11:06:09.571Z,76.10
2019-05-21T11:08:29.247Z,72.20
2019-05-21T11:10:59.695Z,73.20
2019-05-21T11:13:30.122Z,74.50
2019-05-21T11:16:00.625Z,71.70
2019-05-21T11:18:31.022Z,67.90
2019-05-21T11:21:01.526Z,66.50
2019-05-21T11:23:31.952Z,68.00
2019-05-21T11:26:02.399Z,65.90
2019-05-21T11:28:32.902Z,64.60
2019-05-21T11:31:03.334Z,65.10
2019-05-21T11:33:34.186Z,62.80
2019-05-21T11:36:04.773Z,61.90
2019-05-21T11:38:39.887Z,61.30
2019-05-21T11:41:07.311Z,61.20
2019-05-21T11:43:37.882Z,60.10
2019-05-21T11:46:08.328Z,57.00
2019-05-21T11:48:38.764Z,56.10
2019-05-21T11:51:12.510Z,56.00
2019-05-21T11:53:41.353Z,56.20
2019-05-21T11:56:11.789Z,56.70
2019-05-21T11:58:42.194Z,55.30
2019-05-21T12:01:12.720Z,55.10
2019-05-21T12:03:44.084Z,56.30
2019-05-21T12:06:14.511Z,51.90
2019-05-21T12:08:56.433Z,52.50
2019-05-21T12:11:17.415Z,51.60
2019-05-21T12:13:47.895Z,52.40
2019-05-21T12:16:18.338Z,54.20
2019-05-21T12:18:48.728Z,54.30
2019-05-21T12:21:19.229Z,57.60
2019-05-21T12:23:49.616Z,58.10
2019-05-21T12:26:20.045Z,57.50
2019-05-21T12:28:51.514Z,56.60
2019-05-21T12:31:22.027Z,57.20
2019-05-21T12:33:52.463Z,60.30
2019-05-21T12:36:22.946Z,62.60
2019-05-21T12:38:53.447Z,61.60
2019-05-21T12:41:23.999Z,62.40
2019-05-21T12:43:54.428Z,62.00
2019-05-21T12:46:24.855Z,61.10
2019-05-21T12:48:55.279Z,60.80
2019-05-21T12:51:26.008Z,62.50
2019-05-21T12:53:56.782Z,63.30
2019-05-21T12:56:27.357Z,56.80
2019-05-21T12:59:00.661Z,57.40
2019-05-21T13:01:29.962Z,58.60
2019-05-21T13:04:00.398Z,58.80
2019-05-21T13:06:30.792Z,60.20
2019-05-21T13:09:07.868Z,58.90
2019-05-21T13:11:36.803Z,57.20
2019-05-21T13:14:07.404Z,59.80
2019-05-21T13:16:39.624Z,57.70
2019-05-21T13:19:11.275Z,58.20
2019-05-21T13:21:43.346Z,57.10
2019-05-21T13:24:13.894Z,53.00
2019-05-21T13:26:46.392Z,52.90
2019-05-21T13:29:16.831Z,54.30
2019-05-21T13:31:48.708Z,55.50
2019-05-21T13:34:20.780Z,57.40
2019-05-21T13:36:53.795Z,58.10
2019-05-21T13:39:25.754Z,56.10
2019-05-21T13:41:57.914Z,58.40
2019-05-21T13:44:28.390Z,58.00
2019-05-21T13:47:00.747Z,56.50
2019-05-21T13:49:33.053Z,53.40
2019-05-21T13:52:03.560Z,54.70
2019-05-21T13:54:34.297Z,52.50
2019-05-21T13:57:04.813Z,56.10
2019-05-21T13:59:35.416Z,60.50
2019-05-21T14:02:08.144Z,68.80
2019-05-21T14:04:38.603Z,75.00
2019-05-21T14:07:09.113Z,77.60
2019-05-21T14:09:39.499Z,79.20
2019-05-21T14:12:10.019Z,81.40
2019-05-21T14:14:40.452Z,82.80
2019-05-21T14:17:11.121Z,82.80
2019-05-21T14:19:41.701Z,82.30
2019-05-21T14:22:12.136Z,82.60
2019-05-21T14:24:42.534Z,82.20
2019-05-21T14:27:13.043Z,81.20
2019-05-21T14:29:43.641Z,81.10
2019-05-21T14:32:14.360Z,81.10
2019-05-21T14:35:00.324Z,82.30
2019-05-21T14:37:17.924Z,81.40
2019-05-21T14:39:48.370Z,80.50
2019-05-21T14:42:18.768Z,80.60
2019-05-21T14:44:49.200Z,79.00
2019-05-21T14:47:19.656Z,77.90
2019-05-21T14:49:50.084Z,72.50
2019-05-21T14:52:20.550Z,70.30
2019-05-21T14:54:50.985Z,69.60
2019-05-21T14:57:21.382Z,69.50
2019-05-21T14:59:51.811Z,61.80
2019-05-21T15:02:22.203Z,62.10
2019-05-21T15:04:52.799Z,62.70
2019-05-21T15:07:23.298Z,64.20
2019-05-21T15:09:53.893Z,65.40
2019-05-21T15:12:24.288Z,70.50
2019-05-21T15:14:54.715Z,68.90
2019-05-21T15:17:25.280Z,68.30
2019-05-21T15:19:57.609Z,69.50
2019-05-21T15:22:28.020Z,74.40
2019-05-21T15:24:58.522Z,78.10
2019-05-21T15:27:28.926Z,79.70
2019-05-21T15:29:59.581Z,81.60
2019-05-21T15:32:30.872Z,83.00
2019-05-21T15:35:01.381Z,84.00
2019-05-21T15:37:31.840Z,84.10
2019-05-21T15:40:05.476Z,84.60
2019-05-21T15:42:35.937Z,85.40
2019-05-21T15:45:08.313Z,86.70
2019-05-21T15:47:38.709Z,86.90
2019-05-21T15:50:09.671Z,88.10
2019-05-21T15:52:40.061Z,89.60
2019-05-21T15:55:10.713Z,89.30
2019-05-21T15:57:41.197Z,90.00
2019-05-21T16:00:15.756Z,90.40
2019-05-21T16:02:46.154Z,90.50
2019-05-21T16:05:16.740Z,90.70
2019-05-21T16:07:47.270Z,91.40
2019-05-21T16:10:17.914Z,91.90
2019-05-21T16:12:48.304Z,92.90
2019-05-21T16:15:18.809Z,94.30
2019-05-21T16:17:49.268Z,95.80
2019-05-21T16:20:20.114Z,96.50
2019-05-21T16:22:50.610Z,97.70
2019-05-21T16:25:22.099Z,98.50
2019-05-21T16:27:53.480Z,99.20
2019-05-21T16:30:25.250Z,99.90
2019-05-21T16:32:55.879Z,99.90
2019-05-21T16:35:26.508Z,99.90
2019-05-21T16:37:56.905Z,99.90
2019-05-21T16:40:28.374Z,99.90
2019-05-21T16:42:58.923Z,99.90
2019-05-21T16:45:29.382Z,99.90
2019-05-21T16:47:59.976Z,99.90
2019-05-21T16:50:30.530Z,99.90
2019-05-21T16:53:00.927Z,99.90
2019-05-21T16:55:33.521Z,99.90
2019-05-21T16:58:03.978Z,99.90
2019-05-21T17:00:34.488Z,99.90
2019-05-21T17:03:04.962Z,99.90
2019-05-21T17:05:35.444Z,99.90
2019-05-21T17:08:05.908Z,99.90
2019-05-21T17:10:36.358Z,99.90
2019-05-21T17:13:06.826Z,99.90
2019-05-21T17:15:37.498Z,99.90
2019-05-21T17:18:07.902Z,99.90
2019-05-21T17:20:38.476Z,99.90
2019-05-21T17:23:08.868Z,99.90
2019-05-21T17:25:39.391Z,99.90
2019-05-21T17:28:09.874Z,99.90
2019-05-21T17:30:40.462Z,99.90
2019-05-21T17:33:11.006Z,99.90
2019-05-21T17:35:41.529Z,99.90
2019-05-21T17:38:12.070Z,99.90
2019-05-21T17:40:42.785Z,99.90
2019-05-21T17:43:14.947Z,99.90
2019-05-21T17:45:46.029Z,99.90
2019-05-21T17:48:16.425Z,99.90
2019-05-21T17:50:47.482Z,99.90
2019-05-21T17:53:20.363Z,99.90
2019-05-21T17:55:51.437Z,99.90
2019-05-21T17:58:21.925Z,99.90
2019-05-21T18:00:54.441Z,99.90
2019-05-21T18:03:26.219Z,99.90
2019-05-21T18:05:58.630Z,99.90
2019-05-21T18:08:32.481Z,99.90
2019-05-21T18:11:03.051Z,99.90
2019-05-21T18:13:34.139Z,99.90
2019-05-21T18:16:06.238Z,99.90
2019-05-21T18:18:36.986Z,99.90
2019-05-21T18:21:08.091Z,99.90
2019-05-21T18:23:39.115Z,99.90
2019-05-21T18:26:09.509Z,99.90
2019-05-21T18:28:40.368Z,99.90
2019-05-21T18:31:11.963Z,99.90
2019-05-21T18:33:42.565Z,99.90
2019-05-21T18:36:13.301Z,99.90
2019-05-21T18:38:43.739Z,99.90
2019-05-21T18:41:15.284Z,99.90
2019-05-21T18:43:45.784Z,99.90
2019-05-21T18:46:17.264Z,99.90
2019-05-21T18:48:47.702Z,99.90
2019-05-21T18:51:18.108Z,99.90
2019-05-21T18:53:48.930Z,99.90
2019-05-21T18:56:19.455Z,99.90
2019-05-21T18:58:50.084Z,99.90
2019-05-21T19:01:20.683Z,99.90
2019-05-21T19:03:51.343Z,99.90
2019-05-21T19:06:21.811Z,99.90
2019-05-21T19:08:53.365Z,99.90
2019-05-21T19:11:23.823Z,99.90
2019-05-21T19:13:54.598Z,99.90
2019-05-21T19:16:25.215Z,99.90
2019-05-21T19:18:55.656Z,99.90
2019-05-21T19:21:26.123Z,99.90
2019-05-21T19:23:56.569Z,99.90
2019-05-21T19:26:27.231Z,99.90
2019-05-21T19:28:57.666Z,99.90
2019-05-21T19:31:28.310Z,99.90
2019-05-21T19:34:00.611Z,99.90
2019-05-21T19:36:33.413Z,99.90
2019-05-21T19:39:05.129Z,99.90
2019-05-21T19:41:37.192Z,99.90
2019-05-21T19:44:14.747Z,99.90
2019-05-21T19:46:45.358Z,99.90
2019-05-21T19:49:17.177Z,99.90
2019-05-21T19:51:55.489Z,99.90
2019-05-21T19:54:30.549Z,99.90
2019-05-21T19:57:02.235Z,99.90
2019-05-21T19:59:39.123Z,99.90
2019-05-21T20:02:10.307Z,99.90
2019-05-21T20:04:47.562Z,99.90
2019-05-21T20:07:19.858Z,99.90
2019-05-21T20:09:54.774Z,99.90
2019-05-21T20:12:32.019Z,99.90
2019-05-21T20:15:02.629Z,99.90
2019-05-21T20:17:36.264Z,99.90
2019-05-21T20:20:08.438Z,99.90
2019-05-21T20:22:39.955Z,99.90
2019-05-21T20:25:14.772Z,99.90
2019-05-21T20:27:50.879Z,99.90
2019-05-21T20:30:23.287Z,99.90
2019-05-21T20:32:54.583Z,99.90
2019-05-21T20:35:27.491Z,99.90
2019-05-21T20:38:03.064Z,99.90
2019-05-21T20:40:33.661Z,99.90
2019-05-21T20:43:05.773Z,99.90
2019-05-21T20:45:40.490Z,99.90
2019-05-21T20:48:14.342Z,99.90
2019-05-21T20:50:46.233Z,99.90
2019-05-21T20:53:18.869Z,99.90
2019-05-21T20:55:49.870Z,99.90
2019-05-21T20:58:20.459Z,99.90
2019-05-21T21:01:04.628Z,99.90
2019-05-21T21:03:35.782Z,99.90
2019-05-21T21:06:06.482Z,99.90
2019-05-21T21:08:37.789Z,99.90
2019-05-21T21:11:09.210Z,99.90
2019-05-21T21:13:39.862Z,99.90
2019-05-21T21:16:11.052Z,99.90
2019-05-21T21:18:41.799Z,99.90
2019-05-21T21:21:12.485Z,99.90
2019-05-21T21:23:43.721Z,99.90
2019-05-21T21:26:18.849Z,99.90
2019-05-21T21:28:49.325Z,99.90
2019-05-21T21:31:19.770Z,99.90
2019-05-21T21:33:50.469Z,99.90
2019-05-21T21:36:21.351Z,99.90
2019-05-21T21:38:51.924Z,99.90
2019-05-21T21:41:22.450Z,99.90
2019-05-21T21:43:52.858Z,99.90
2019-05-21T21:46:23.487Z,99.90
2019-05-21T21:48:58.338Z,99.90
2019-05-21T21:51:28.858Z,99.90
2019-05-21T21:53:59.321Z,99.90
2019-05-21T21:56:29.843Z,99.90
2019-05-21T21:59:00.483Z,99.90
2019-05-21T22:01:50.323Z,99.90
2019-05-21T22:04:25.613Z,99.90
2019-05-21T22:06:56.630Z,99.90
2019-05-21T22:09:29.534Z,99.90
2019-05-21T22:12:00.171Z,99.90
2019-05-21T22:14:31.249Z,99.90
2019-05-21T22:17:02.383Z,99.90
2019-05-21T22:19:33.619Z,99.90
2019-05-21T22:22:05.735Z,99.90
2019-05-21T22:24:36.279Z,99.90
2019-05-21T22:27:06.740Z,99.90
2019-05-21T22:29:37.264Z,99.90
2019-05-21T22:32:07.833Z,99.90
2019-05-21T22:34:38.345Z,99.90
2019-05-21T22:37:10.596Z,99.90
2019-05-21T22:39:42.906Z,99.90
2019-05-21T22:42:14.212Z,99.90
2019-05-21T22:44:44.897Z,99.90
2019-05-21T22:47:15.984Z,99.90
2019-05-21T22:49:46.447Z,99.90
2019-05-21T22:52:16.893Z,99.90
2019-05-21T22:54:47.282Z,99.90
2019-05-21T22:57:17.713Z,99.90
2019-05-21T22:59:48.117Z,99.90
2019-05-21T23:02:20.261Z,99.90
2019-05-21T23:04:50.934Z,99.90
2019-05-21T23:07:21.564Z,99.90
2019-05-21T23:09:52.660Z,99.90
2019-05-21T23:12:23.535Z,99.90
2019-05-21T23:14:54.006Z,99.90
2019-05-21T23:17:26.335Z,99.90
2019-05-21T23:20:15.043Z,99.90
2019-05-21T23:22:49.154Z,99.90
2019-05-21T23:25:21.378Z,99.90
2019-05-21T23:27:52.260Z,99.90
2019-05-21T23:30:22.998Z,99.90
2019-05-21T23:32:53.699Z,99.90
2019-05-21T23:35:24.365Z,99.90
2019-05-21T23:37:56.519Z,99.90
2019-05-21T23:40:27.663Z,99.90
2019-05-21T23:42:58.369Z,99.90
2019-05-21T23:45:30.545Z,99.90
2019-05-21T23:48:01.425Z,99.90
2019-05-21T23:50:31.902Z,99.90
2019-05-21T23:53:03.006Z,99.90
2019-05-21T23:55:34.000Z,99.90
2019-05-21T23:58:04.531Z,99.90
